sensor_id;sensor_type;location;lat;lon;timestamp;P1;durP1;ratioP1;P2;durP2;ratioP2
7767;SDS011;3928;42.626;23.382;2022-12-16T00:00:29;76.20;;;43.47;;
7767;SDS011;3928;42.626;23.382;2022-12-16T00:02:57;74.10;;;43.17;;
7767;SDS011;3928;42.626;23.382;2022-12-16T00:05:26;77.50;;;44.60;;
7767;SDS011;3928;42.626;23.382;2022-12-16T00:07:53;119.43;;;42.97;;
7767;SDS011;3928;42.626;23.382;2022-12-16T00:10:20;93.13;;;44.50;;
7767;SDS011;3928;42.626;23.382;2022-12-16T00:12:47;87.47;;;41.00;;
7767;SDS011;3928;42.626;23.382;2022-12-16T00:15:14;141.70;;;43.80;;
7767;SDS011;3928;42.626;23.382;2022-12-16T00:17:42;73.57;;;42.93;;
7767;SDS011;3928;42.626;23.382;2022-12-16T00:20:09;79.97;;;41.07;;
7767;SDS011;3928;42.626;23.382;2022-12-16T00:22:37;112.20;;;43.37;;
7767;SDS011;3928;42.626;23.382;2022-12-16T00:25:04;80.73;;;40.63;;
7767;SDS011;3928;42.626;23.382;2022-12-16T00:27:31;88.33;;;41.27;;
7767;SDS011;3928;42.626;23.382;2022-12-16T00:29:58;79.13;;;43.00;;
7767;SDS011;3928;42.626;23.382;2022-12-16T00:32:25;68.77;;;41.33;;
7767;SDS011;3928;42.626;23.382;2022-12-16T00:34:53;105.03;;;42.93;;
7767;SDS011;3928;42.626;23.382;2022-12-16T00:37:20;91.83;;;43.63;;
7767;SDS011;3928;42.626;23.382;2022-12-16T00:39:47;74.23;;;42.90;;
7767;SDS011;3928;42.626;23.382;2022-12-16T00:42:13;135.03;;;42.63;;
7767;SDS011;3928;42.626;23.382;2022-12-16T00:44:40;68.90;;;42.33;;
7767;SDS011;3928;42.626;23.382;2022-12-16T00:47:07;75.43;;;40.70;;
7767;SDS011;3928;42.626;23.382;2022-12-16T00:49:34;77.07;;;41.97;;
7767;SDS011;3928;42.626;23.382;2022-12-16T00:52:02;80.17;;;40.63;;
7767;SDS011;3928;42.626;23.382;2022-12-16T00:54:29;114.40;;;39.50;;
7767;SDS011;3928;42.626;23.382;2022-12-16T00:56:56;76.83;;;39.57;;
7767;SDS011;3928;42.626;23.382;2022-12-16T00:59:23;93.57;;;42.20;;
7767;SDS011;3928;42.626;23.382;2022-12-16T01:01:49;78.97;;;40.47;;
7767;SDS011;3928;42.626;23.382;2022-12-16T01:04:16;94.00;;;42.87;;
7767;SDS011;3928;42.626;23.382;2022-12-16T01:06:43;67.77;;;39.37;;
7767;SDS011;3928;42.626;23.382;2022-12-16T01:09:12;76.50;;;42.67;;
7767;SDS011;3928;42.626;23.382;2022-12-16T01:11:39;81.13;;;41.60;;
7767;SDS011;3928;42.626;23.382;2022-12-16T01:14:06;87.93;;;42.13;;
7767;SDS011;3928;42.626;23.382;2022-12-16T01:16:33;81.47;;;41.47;;
7767;SDS011;3928;42.626;23.382;2022-12-16T01:19:00;75.87;;;38.70;;
7767;SDS011;3928;42.626;23.382;2022-12-16T01:21:27;75.63;;;41.80;;
7767;SDS011;3928;42.626;23.382;2022-12-16T01:23:53;67.83;;;41.43;;
7767;SDS011;3928;42.626;23.382;2022-12-16T01:26:21;67.13;;;39.10;;
7767;SDS011;3928;42.626;23.382;2022-12-16T01:28:49;83.87;;;40.03;;
7767;SDS011;3928;42.626;23.382;2022-12-16T01:31:16;62.57;;;37.90;;
7767;SDS011;3928;42.626;23.382;2022-12-16T01:33:43;88.97;;;37.33;;
7767;SDS011;3928;42.626;23.382;2022-12-16T01:36:10;61.83;;;37.80;;
7767;SDS011;3928;42.626;23.382;2022-12-16T01:38:37;75.90;;;34.40;;
7767;SDS011;3928;42.626;23.382;2022-12-16T01:41:04;71.00;;;39.30;;
7767;SDS011;3928;42.626;23.382;2022-12-16T01:43:34;59.70;;;36.23;;
7767;SDS011;3928;42.626;23.382;2022-12-16T01:46:02;104.03;;;37.77;;
7767;SDS011;3928;42.626;23.382;2022-12-16T01:48:34;98.87;;;37.30;;
7767;SDS011;3928;42.626;23.382;2022-12-16T01:51:06;89.07;;;36.93;;
7767;SDS011;3928;42.626;23.382;2022-12-16T01:53:36;85.80;;;37.43;;
7767;SDS011;3928;42.626;23.382;2022-12-16T01:56:05;111.33;;;38.00;;
7767;SDS011;3928;42.626;23.382;2022-12-16T01:58:33;125.23;;;40.20;;
7767;SDS011;3928;42.626;23.382;2022-12-16T02:01:03;74.40;;;39.17;;
7767;SDS011;3928;42.626;23.382;2022-12-16T02:03:32;110.63;;;40.73;;
7767;SDS011;3928;42.626;23.382;2022-12-16T02:06:01;77.60;;;36.93;;
7767;SDS011;3928;42.626;23.382;2022-12-16T02:08:29;71.27;;;38.80;;
7767;SDS011;3928;42.626;23.382;2022-12-16T02:11:02;125.33;;;43.73;;
7767;SDS011;3928;42.626;23.382;2022-12-16T02:13:45;73.80;;;37.00;;
7767;SDS011;3928;42.626;23.382;2022-12-16T02:16:23;69.60;;;37.17;;
7767;SDS011;3928;42.626;23.382;2022-12-16T02:18:57;61.10;;;35.87;;
7767;SDS011;3928;42.626;23.382;2022-12-16T02:21:31;65.67;;;33.70;;
7767;SDS011;3928;42.626;23.382;2022-12-16T02:27:34;59.60;;;32.13;;
7767;SDS011;3928;42.626;23.382;2022-12-16T02:30:24;57.47;;;29.97;;
7767;SDS011;3928;42.626;23.382;2022-12-16T02:32:59;50.00;;;30.57;;
7767;SDS011;3928;42.626;23.382;2022-12-16T02:35:37;46.67;;;29.43;;
7767;SDS011;3928;42.626;23.382;2022-12-16T02:38:11;52.93;;;30.10;;
7767;SDS011;3928;42.626;23.382;2022-12-16T02:40:48;52.37;;;33.23;;
7767;SDS011;3928;42.626;23.382;2022-12-16T02:43:21;59.77;;;35.17;;
7767;SDS011;3928;42.626;23.382;2022-12-16T02:46:11;51.63;;;32.80;;
7767;SDS011;3928;42.626;23.382;2022-12-16T02:48:38;57.80;;;33.90;;
7767;SDS011;3928;42.626;23.382;2022-12-16T02:51:05;60.37;;;36.67;;
7767;SDS011;3928;42.626;23.382;2022-12-16T02:53:33;68.33;;;37.27;;
7767;SDS011;3928;42.626;23.382;2022-12-16T02:56:03;62.53;;;37.37;;
7767;SDS011;3928;42.626;23.382;2022-12-16T02:58:37;59.00;;;35.40;;
7767;SDS011;3928;42.626;23.382;2022-12-16T03:01:14;56.37;;;36.17;;
7767;SDS011;3928;42.626;23.382;2022-12-16T03:03:46;74.23;;;37.17;;
7767;SDS011;3928;42.626;23.382;2022-12-16T03:06:18;67.03;;;35.73;;
7767;SDS011;3928;42.626;23.382;2022-12-16T03:08:47;61.00;;;37.47;;
7767;SDS011;3928;42.626;23.382;2022-12-16T03:11:18;59.13;;;34.70;;
7767;SDS011;3928;42.626;23.382;2022-12-16T03:13:49;52.50;;;33.43;;
7767;SDS011;3928;42.626;23.382;2022-12-16T03:16:20;55.37;;;34.63;;
7767;SDS011;3928;42.626;23.382;2022-12-16T03:18:51;51.50;;;33.13;;
7767;SDS011;3928;42.626;23.382;2022-12-16T03:21:20;53.97;;;33.27;;
7767;SDS011;3928;42.626;23.382;2022-12-16T03:23:51;45.63;;;30.03;;
7767;SDS011;3928;42.626;23.382;2022-12-16T03:26:23;46.03;;;31.43;;
7767;SDS011;3928;42.626;23.382;2022-12-16T03:28:54;47.77;;;30.70;;
7767;SDS011;3928;42.626;23.382;2022-12-16T03:31:29;49.37;;;31.93;;
7767;SDS011;3928;42.626;23.382;2022-12-16T03:34:02;86.73;;;35.20;;
7767;SDS011;3928;42.626;23.382;2022-12-16T03:36:34;54.77;;;33.70;;
7767;SDS011;3928;42.626;23.382;2022-12-16T03:39:04;55.33;;;34.00;;
7767;SDS011;3928;42.626;23.382;2022-12-16T03:41:33;51.37;;;31.20;;
7767;SDS011;3928;42.626;23.382;2022-12-16T03:44:02;54.40;;;32.93;;
7767;SDS011;3928;42.626;23.382;2022-12-16T03:46:30;56.90;;;32.97;;
7767;SDS011;3928;42.626;23.382;2022-12-16T03:48:57;130.13;;;35.90;;
7767;SDS011;3928;42.626;23.382;2022-12-16T03:51:24;134.57;;;40.00;;
7767;SDS011;3928;42.626;23.382;2022-12-16T03:53:51;80.07;;;34.73;;
7767;SDS011;3928;42.626;23.382;2022-12-16T03:56:17;69.30;;;34.37;;
7767;SDS011;3928;42.626;23.382;2022-12-16T03:58:44;70.77;;;36.43;;
7767;SDS011;3928;42.626;23.382;2022-12-16T04:01:11;63.83;;;35.77;;
7767;SDS011;3928;42.626;23.382;2022-12-16T04:03:41;94.80;;;39.20;;
7767;SDS011;3928;42.626;23.382;2022-12-16T04:06:07;64.97;;;37.17;;
7767;SDS011;3928;42.626;23.382;2022-12-16T04:08:34;114.53;;;43.10;;
7767;SDS011;3928;42.626;23.382;2022-12-16T04:11:01;124.10;;;45.17;;
7767;SDS011;3928;42.626;23.382;2022-12-16T04:13:45;84.83;;;42.23;;
7767;SDS011;3928;42.626;23.382;2022-12-16T04:16:29;85.00;;;46.73;;
7767;SDS011;3928;42.626;23.382;2022-12-16T04:19:17;109.50;;;45.43;;
7767;SDS011;3928;42.626;23.382;2022-12-16T04:22:06;88.17;;;42.83;;
7767;SDS011;3928;42.626;23.382;2022-12-16T04:24:56;92.27;;;42.90;;
7767;SDS011;3928;42.626;23.382;2022-12-16T04:27:25;114.00;;;43.27;;
7767;SDS011;3928;42.626;23.382;2022-12-16T04:29:53;122.70;;;43.57;;
7767;SDS011;3928;42.626;23.382;2022-12-16T04:32:38;100.97;;;45.70;;
7767;SDS011;3928;42.626;23.382;2022-12-16T04:35:24;151.30;;;43.17;;
7767;SDS011;3928;42.626;23.382;2022-12-16T04:38:08;79.17;;;38.07;;
7767;SDS011;3928;42.626;23.382;2022-12-16T04:40:52;102.47;;;39.40;;
7767;SDS011;3928;42.626;23.382;2022-12-16T04:43:36;116.90;;;40.33;;
7767;SDS011;3928;42.626;23.382;2022-12-16T04:46:20;148.17;;;41.70;;
7767;SDS011;3928;42.626;23.382;2022-12-16T04:49:10;129.57;;;38.13;;
7767;SDS011;3928;42.626;23.382;2022-12-16T04:51:55;77.93;;;36.60;;
7767;SDS011;3928;42.626;23.382;2022-12-16T04:54:39;120.67;;;38.10;;
7767;SDS011;3928;42.626;23.382;2022-12-16T04:57:24;78.70;;;37.53;;
7767;SDS011;3928;42.626;23.382;2022-12-16T05:00:08;87.13;;;41.83;;
7767;SDS011;3928;42.626;23.382;2022-12-16T05:02:53;100.47;;;37.17;;
7767;SDS011;3928;42.626;23.382;2022-12-16T05:05:37;74.87;;;37.77;;
7767;SDS011;3928;42.626;23.382;2022-12-16T05:08:23;99.97;;;40.50;;
7767;SDS011;3928;42.626;23.382;2022-12-16T05:11:12;94.50;;;39.77;;
7767;SDS011;3928;42.626;23.382;2022-12-16T05:13:53;93.67;;;37.83;;
7767;SDS011;3928;42.626;23.382;2022-12-16T05:16:37;102.33;;;42.10;;
7767;SDS011;3928;42.626;23.382;2022-12-16T05:19:21;95.97;;;39.87;;
7767;SDS011;3928;42.626;23.382;2022-12-16T05:22:05;86.93;;;40.63;;
7767;SDS011;3928;42.626;23.382;2022-12-16T05:24:51;107.33;;;38.97;;
7767;SDS011;3928;42.626;23.382;2022-12-16T05:27:35;150.80;;;43.63;;
7767;SDS011;3928;42.626;23.382;2022-12-16T05:30:19;97.50;;;41.50;;
7767;SDS011;3928;42.626;23.382;2022-12-16T05:33:03;83.23;;;39.30;;
7767;SDS011;3928;42.626;23.382;2022-12-16T05:35:49;79.40;;;37.93;;
7767;SDS011;3928;42.626;23.382;2022-12-16T05:38:34;78.17;;;37.70;;
7767;SDS011;3928;42.626;23.382;2022-12-16T05:41:19;92.70;;;39.10;;
7767;SDS011;3928;42.626;23.382;2022-12-16T05:44:03;73.23;;;34.90;;
7767;SDS011;3928;42.626;23.382;2022-12-16T05:46:47;66.83;;;36.50;;
7767;SDS011;3928;42.626;23.382;2022-12-16T05:49:32;92.80;;;37.93;;
7767;SDS011;3928;42.626;23.382;2022-12-16T05:52:16;80.73;;;37.40;;
7767;SDS011;3928;42.626;23.382;2022-12-16T05:55:00;92.20;;;38.73;;
7767;SDS011;3928;42.626;23.382;2022-12-16T05:57:48;73.83;;;38.77;;
7767;SDS011;3928;42.626;23.382;2022-12-16T06:00:32;95.03;;;38.83;;
7767;SDS011;3928;42.626;23.382;2022-12-16T06:03:17;97.43;;;40.33;;
7767;SDS011;3928;42.626;23.382;2022-12-16T06:06:01;143.67;;;41.20;;
7767;SDS011;3928;42.626;23.382;2022-12-16T06:08:46;98.43;;;44.17;;
7767;SDS011;3928;42.626;23.382;2022-12-16T06:11:29;131.27;;;38.27;;
7767;SDS011;3928;42.626;23.382;2022-12-16T06:14:15;104.20;;;40.57;;
7767;SDS011;3928;42.626;23.382;2022-12-16T06:16:59;112.57;;;38.47;;
7767;SDS011;3928;42.626;23.382;2022-12-16T06:19:43;91.17;;;42.13;;
7767;SDS011;3928;42.626;23.382;2022-12-16T06:22:27;92.00;;;42.53;;
7767;SDS011;3928;42.626;23.382;2022-12-16T06:25:11;129.97;;;42.20;;
7767;SDS011;3928;42.626;23.382;2022-12-16T06:27:56;103.00;;;42.47;;
7767;SDS011;3928;42.626;23.382;2022-12-16T06:30:42;90.80;;;40.67;;
7767;SDS011;3928;42.626;23.382;2022-12-16T06:33:26;153.83;;;40.13;;
7767;SDS011;3928;42.626;23.382;2022-12-16T06:36:10;87.70;;;37.60;;
7767;SDS011;3928;42.626;23.382;2022-12-16T06:38:54;151.23;;;42.73;;
7767;SDS011;3928;42.626;23.382;2022-12-16T06:41:38;125.63;;;43.10;;
7767;SDS011;3928;42.626;23.382;2022-12-16T06:44:23;114.70;;;42.90;;
7767;SDS011;3928;42.626;23.382;2022-12-16T06:47:08;97.77;;;39.47;;
7767;SDS011;3928;42.626;23.382;2022-12-16T06:49:52;90.40;;;38.80;;
7767;SDS011;3928;42.626;23.382;2022-12-16T06:52:36;97.80;;;38.47;;
7767;SDS011;3928;42.626;23.382;2022-12-16T06:55:20;72.77;;;38.97;;
7767;SDS011;3928;42.626;23.382;2022-12-16T06:58:04;84.83;;;39.33;;
7767;SDS011;3928;42.626;23.382;2022-12-16T07:00:47;84.50;;;39.97;;
7767;SDS011;3928;42.626;23.382;2022-12-16T07:03:33;104.10;;;42.60;;
7767;SDS011;3928;42.626;23.382;2022-12-16T07:06:17;81.17;;;39.27;;
7767;SDS011;3928;42.626;23.382;2022-12-16T07:09:01;78.00;;;39.97;;
7767;SDS011;3928;42.626;23.382;2022-12-16T07:11:45;78.00;;;40.73;;
7767;SDS011;3928;42.626;23.382;2022-12-16T07:14:29;71.97;;;38.03;;
7767;SDS011;3928;42.626;23.382;2022-12-16T07:17:13;78.33;;;41.83;;
7767;SDS011;3928;42.626;23.382;2022-12-16T07:19:58;84.60;;;36.03;;
7767;SDS011;3928;42.626;23.382;2022-12-16T07:22:43;91.57;;;38.47;;
7767;SDS011;3928;42.626;23.382;2022-12-16T07:25:27;80.73;;;41.37;;
7767;SDS011;3928;42.626;23.382;2022-12-16T07:28:12;88.73;;;41.67;;
7767;SDS011;3928;42.626;23.382;2022-12-16T07:30:56;71.97;;;42.00;;
7767;SDS011;3928;42.626;23.382;2022-12-16T07:33:40;81.07;;;42.57;;
7767;SDS011;3928;42.626;23.382;2022-12-16T07:36:40;75.50;;;39.00;;
7767;SDS011;3928;42.626;23.382;2022-12-16T07:39:36;78.70;;;38.97;;
7767;SDS011;3928;42.626;23.382;2022-12-16T07:42:20;86.83;;;40.23;;
7767;SDS011;3928;42.626;23.382;2022-12-16T07:45:05;84.43;;;39.67;;
7767;SDS011;3928;42.626;23.382;2022-12-16T07:47:50;86.43;;;39.83;;
7767;SDS011;3928;42.626;23.382;2022-12-16T07:50:34;93.43;;;40.90;;
7767;SDS011;3928;42.626;23.382;2022-12-16T07:53:20;78.80;;;38.73;;
7767;SDS011;3928;42.626;23.382;2022-12-16T07:56:05;94.30;;;41.10;;
7767;SDS011;3928;42.626;23.382;2022-12-16T07:58:50;99.00;;;42.37;;
7767;SDS011;3928;42.626;23.382;2022-12-16T08:01:34;85.33;;;44.07;;
7767;SDS011;3928;42.626;23.382;2022-12-16T08:04:18;93.40;;;43.10;;
7767;SDS011;3928;42.626;23.382;2022-12-16T08:07:02;100.33;;;43.47;;
7767;SDS011;3928;42.626;23.382;2022-12-16T08:09:48;86.73;;;42.03;;
7767;SDS011;3928;42.626;23.382;2022-12-16T08:12:44;78.90;;;41.83;;
7767;SDS011;3928;42.626;23.382;2022-12-16T08:15:28;88.80;;;41.80;;
7767;SDS011;3928;42.626;23.382;2022-12-16T08:18:12;85.83;;;42.40;;
7767;SDS011;3928;42.626;23.382;2022-12-16T08:20:57;98.70;;;42.90;;
7767;SDS011;3928;42.626;23.382;2022-12-16T08:23:41;120.83;;;45.50;;
7767;SDS011;3928;42.626;23.382;2022-12-16T08:26:26;85.67;;;43.23;;
7767;SDS011;3928;42.626;23.382;2022-12-16T08:29:11;90.50;;;44.37;;
7767;SDS011;3928;42.626;23.382;2022-12-16T08:31:55;90.10;;;45.53;;
7767;SDS011;3928;42.626;23.382;2022-12-16T08:34:39;106.43;;;45.60;;
7767;SDS011;3928;42.626;23.382;2022-12-16T08:37:23;87.13;;;44.23;;
7767;SDS011;3928;42.626;23.382;2022-12-16T08:40:08;84.00;;;42.53;;
7767;SDS011;3928;42.626;23.382;2022-12-16T08:42:56;84.90;;;43.63;;
7767;SDS011;3928;42.626;23.382;2022-12-16T08:45:41;98.93;;;46.10;;
7767;SDS011;3928;42.626;23.382;2022-12-16T08:48:25;88.33;;;45.33;;
7767;SDS011;3928;42.626;23.382;2022-12-16T08:51:10;91.97;;;47.10;;
7767;SDS011;3928;42.626;23.382;2022-12-16T08:53:54;100.33;;;48.30;;
7767;SDS011;3928;42.626;23.382;2022-12-16T08:56:39;95.87;;;45.53;;
7767;SDS011;3928;42.626;23.382;2022-12-16T08:59:24;89.83;;;46.97;;
7767;SDS011;3928;42.626;23.382;2022-12-16T09:02:08;95.10;;;47.83;;
7767;SDS011;3928;42.626;23.382;2022-12-16T09:04:53;86.93;;;44.97;;
7767;SDS011;3928;42.626;23.382;2022-12-16T09:07:48;95.03;;;45.23;;
7767;SDS011;3928;42.626;23.382;2022-12-16T09:10:32;86.30;;;43.70;;
7767;SDS011;3928;42.626;23.382;2022-12-16T09:13:16;79.97;;;43.70;;
7767;SDS011;3928;42.626;23.382;2022-12-16T09:16:13;72.50;;;38.13;;
7767;SDS011;3928;42.626;23.382;2022-12-16T09:18:57;75.33;;;42.10;;
7767;SDS011;3928;42.626;23.382;2022-12-16T09:21:42;69.03;;;39.10;;
7767;SDS011;3928;42.626;23.382;2022-12-16T09:24:25;74.33;;;40.13;;
7767;SDS011;3928;42.626;23.382;2022-12-16T09:27:09;73.87;;;40.27;;
7767;SDS011;3928;42.626;23.382;2022-12-16T09:29:53;66.63;;;37.90;;
7767;SDS011;3928;42.626;23.382;2022-12-16T09:32:41;69.87;;;37.93;;
7767;SDS011;3928;42.626;23.382;2022-12-16T09:35:25;57.03;;;33.27;;
7767;SDS011;3928;42.626;23.382;2022-12-16T09:38:09;59.13;;;34.23;;
7767;SDS011;3928;42.626;23.382;2022-12-16T09:40:54;56.03;;;34.23;;
7767;SDS011;3928;42.626;23.382;2022-12-16T09:43:48;66.23;;;37.13;;
7767;SDS011;3928;42.626;23.382;2022-12-16T09:46:45;67.23;;;36.53;;
7767;SDS011;3928;42.626;23.382;2022-12-16T09:49:42;65.27;;;36.97;;
7767;SDS011;3928;42.626;23.382;2022-12-16T09:52:30;58.53;;;35.57;;
7767;SDS011;3928;42.626;23.382;2022-12-16T09:55:22;63.57;;;36.80;;
7767;SDS011;3928;42.626;23.382;2022-12-16T09:58:09;61.67;;;36.27;;
7767;SDS011;3928;42.626;23.382;2022-12-16T10:00:55;64.90;;;37.57;;
7767;SDS011;3928;42.626;23.382;2022-12-16T10:03:40;57.10;;;34.83;;
7767;SDS011;3928;42.626;23.382;2022-12-16T10:06:32;60.47;;;35.07;;
7767;SDS011;3928;42.626;23.382;2022-12-16T10:09:23;54.67;;;36.63;;
7767;SDS011;3928;42.626;23.382;2022-12-16T10:12:15;62.43;;;37.30;;
7767;SDS011;3928;42.626;23.382;2022-12-16T10:15:11;62.47;;;37.03;;
7767;SDS011;3928;42.626;23.382;2022-12-16T10:18:09;61.10;;;36.50;;
7767;SDS011;3928;42.626;23.382;2022-12-16T10:21:04;54.73;;;35.00;;
7767;SDS011;3928;42.626;23.382;2022-12-16T10:23:53;57.30;;;37.17;;
7767;SDS011;3928;42.626;23.382;2022-12-16T10:26:48;57.40;;;35.63;;
7767;SDS011;3928;42.626;23.382;2022-12-16T10:29:41;56.57;;;37.43;;
7767;SDS011;3928;42.626;23.382;2022-12-16T10:32:28;56.37;;;37.00;;
7767;SDS011;3928;42.626;23.382;2022-12-16T10:35:17;59.63;;;36.60;;
7767;SDS011;3928;42.626;23.382;2022-12-16T10:38:05;59.53;;;35.50;;
7767;SDS011;3928;42.626;23.382;2022-12-16T10:40:57;57.22;;;36.17;;
7767;SDS011;3928;42.626;23.382;2022-12-16T10:43:43;60.90;;;37.92;;
7767;SDS011;3928;42.626;23.382;2022-12-16T10:46:32;59.35;;;36.80;;
7767;SDS011;3928;42.626;23.382;2022-12-16T10:49:18;55.83;;;37.03;;
7767;SDS011;3928;42.626;23.382;2022-12-16T10:52:04;52.25;;;34.25;;
7767;SDS011;3928;42.626;23.382;2022-12-16T10:54:53;59.90;;;33.80;;
7767;SDS011;3928;42.626;23.382;2022-12-16T10:57:50;50.97;;;33.80;;
7767;SDS011;3928;42.626;23.382;2022-12-16T11:00:43;47.33;;;30.15;;
7767;SDS011;3928;42.626;23.382;2022-12-16T11:03:31;35.30;;;24.98;;
7767;SDS011;3928;42.626;23.382;2022-12-16T11:06:18;31.38;;;22.95;;
7767;SDS011;3928;42.626;23.382;2022-12-16T11:09:20;26.58;;;19.55;;
7767;SDS011;3928;42.626;23.382;2022-12-16T11:12:16;17.70;;;12.93;;
7767;SDS011;3928;42.626;23.382;2022-12-16T11:15:18;14.02;;;10.43;;
7767;SDS011;3928;42.626;23.382;2022-12-16T11:18:04;10.57;;;8.70;;
7767;SDS011;3928;42.626;23.382;2022-12-16T11:21:04;10.30;;;8.07;;
7767;SDS011;3928;42.626;23.382;2022-12-16T11:24:06;11.38;;;7.40;;
7767;SDS011;3928;42.626;23.382;2022-12-16T11:26:56;11.40;;;8.85;;
7767;SDS011;3928;42.626;23.382;2022-12-16T11:32:58;16.15;;;12.40;;
7767;SDS011;3928;42.626;23.382;2022-12-16T11:35:49;21.17;;;13.30;;
7767;SDS011;3928;42.626;23.382;2022-12-16T11:38:38;24.98;;;17.02;;
7767;SDS011;3928;42.626;23.382;2022-12-16T11:41:26;27.98;;;18.05;;
7767;SDS011;3928;42.626;23.382;2022-12-16T11:44:15;22.77;;;16.50;;
7767;SDS011;3928;42.626;23.382;2022-12-16T11:47:01;19.13;;;14.55;;
7767;SDS011;3928;42.626;23.382;2022-12-16T11:49:49;23.63;;;17.10;;
7767;SDS011;3928;42.626;23.382;2022-12-16T11:52:34;31.63;;;24.25;;
7767;SDS011;3928;42.626;23.382;2022-12-16T11:55:20;43.33;;;30.30;;
7767;SDS011;3928;42.626;23.382;2022-12-16T11:58:14;27.25;;;19.85;;
7767;SDS011;3928;42.626;23.382;2022-12-16T12:01:07;30.02;;;21.73;;
7767;SDS011;3928;42.626;23.382;2022-12-16T12:03:57;29.15;;;20.73;;
7767;SDS011;3928;42.626;23.382;2022-12-16T12:06:50;26.88;;;18.98;;
7767;SDS011;3928;42.626;23.382;2022-12-16T12:09:45;17.65;;;13.40;;
7767;SDS011;3928;42.626;23.382;2022-12-16T12:12:37;14.98;;;11.40;;
7767;SDS011;3928;42.626;23.382;2022-12-16T12:15:29;9.70;;;7.07;;
7767;SDS011;3928;42.626;23.382;2022-12-16T12:18:23;7.60;;;6.78;;
7767;SDS011;3928;42.626;23.382;2022-12-16T12:21:18;6.50;;;5.75;;
7767;SDS011;3928;42.626;23.382;2022-12-16T12:24:10;8.30;;;6.35;;
7767;SDS011;3928;42.626;23.382;2022-12-16T12:27:15;7.35;;;5.90;;
7767;SDS011;3928;42.626;23.382;2022-12-16T12:30:08;11.65;;;7.10;;
7767;SDS011;3928;42.626;23.382;2022-12-16T12:33:00;7.13;;;6.43;;
7767;SDS011;3928;42.626;23.382;2022-12-16T12:35:59;8.52;;;5.85;;
7767;SDS011;3928;42.626;23.382;2022-12-16T12:38:51;9.48;;;6.47;;
7767;SDS011;3928;42.626;23.382;2022-12-16T12:41:56;9.73;;;7.95;;
7767;SDS011;3928;42.626;23.382;2022-12-16T12:44:55;29.90;;;22.85;;
7767;SDS011;3928;42.626;23.382;2022-12-16T12:47:50;7.60;;;6.80;;
7767;SDS011;3928;42.626;23.382;2022-12-16T12:50:43;9.05;;;6.05;;
7767;SDS011;3928;42.626;23.382;2022-12-16T12:53:37;6.90;;;6.22;;
7767;SDS011;3928;42.626;23.382;2022-12-16T12:56:33;6.80;;;6.20;;
7767;SDS011;3928;42.626;23.382;2022-12-16T12:59:28;9.02;;;5.88;;
7767;SDS011;3928;42.626;23.382;2022-12-16T13:02:17;7.50;;;5.63;;
7767;SDS011;3928;42.626;23.382;2022-12-16T13:05:09;7.57;;;6.40;;
7767;SDS011;3928;42.626;23.382;2022-12-16T13:11:16;13.32;;;7.57;;
7767;SDS011;3928;42.626;23.382;2022-12-16T13:14:00;9.02;;;7.35;;
7767;SDS011;3928;42.626;23.382;2022-12-16T13:16:55;16.80;;;8.73;;
7767;SDS011;3928;42.626;23.382;2022-12-16T13:19:43;10.73;;;8.85;;
7767;SDS011;3928;42.626;23.382;2022-12-16T13:22:35;9.90;;;7.90;;
7767;SDS011;3928;42.626;23.382;2022-12-16T13:25:39;10.70;;;8.82;;
7767;SDS011;3928;42.626;23.382;2022-12-16T13:28:28;12.30;;;8.00;;
7767;SDS011;3928;42.626;23.382;2022-12-16T13:31:14;17.02;;;9.23;;
7767;SDS011;3928;42.626;23.382;2022-12-16T13:34:02;15.73;;;9.43;;
7767;SDS011;3928;42.626;23.382;2022-12-16T13:36:55;10.32;;;8.00;;
7767;SDS011;3928;42.626;23.382;2022-12-16T13:39:42;9.43;;;8.30;;
7767;SDS011;3928;42.626;23.382;2022-12-16T13:42:47;8.18;;;5.95;;
7767;SDS011;3928;42.626;23.382;2022-12-16T13:45:37;6.78;;;5.97;;
7767;SDS011;3928;42.626;23.382;2022-12-16T13:48:30;7.03;;;5.45;;
7767;SDS011;3928;42.626;23.382;2022-12-16T13:55:06;9.60;;;6.03;;
7767;SDS011;3928;42.626;23.382;2022-12-16T13:57:58;8.25;;;5.07;;
7767;SDS011;3928;42.626;23.382;2022-12-16T14:00:53;9.18;;;5.45;;
7767;SDS011;3928;42.626;23.382;2022-12-16T14:03:41;5.95;;;5.35;;
7767;SDS011;3928;42.626;23.382;2022-12-16T14:06:28;5.78;;;5.18;;
7767;SDS011;3928;42.626;23.382;2022-12-16T14:09:18;8.52;;;5.95;;
7767;SDS011;3928;42.626;23.382;2022-12-16T14:12:14;8.35;;;6.45;;
7767;SDS011;3928;42.626;23.382;2022-12-16T14:15:07;8.73;;;6.38;;
7767;SDS011;3928;42.626;23.382;2022-12-16T14:18:03;14.50;;;6.90;;
7767;SDS011;3928;42.626;23.382;2022-12-16T14:21:05;11.32;;;7.55;;
7767;SDS011;3928;42.626;23.382;2022-12-16T14:23:56;9.02;;;7.35;;
7767;SDS011;3928;42.626;23.382;2022-12-16T14:26:46;10.38;;;7.55;;
7767;SDS011;3928;42.626;23.382;2022-12-16T14:29:34;11.77;;;9.57;;
7767;SDS011;3928;42.626;23.382;2022-12-16T14:32:20;16.92;;;11.18;;
7767;SDS011;3928;42.626;23.382;2022-12-16T14:35:11;20.83;;;13.38;;
7767;SDS011;3928;42.626;23.382;2022-12-16T14:37:57;16.83;;;12.25;;
7767;SDS011;3928;42.626;23.382;2022-12-16T14:40:41;20.05;;;13.30;;
7767;SDS011;3928;42.626;23.382;2022-12-16T14:43:30;22.67;;;14.40;;
7767;SDS011;3928;42.626;23.382;2022-12-16T14:46:23;17.55;;;12.50;;
7767;SDS011;3928;42.626;23.382;2022-12-16T14:49:16;18.15;;;11.88;;
7767;SDS011;3928;42.626;23.382;2022-12-16T14:52:11;17.30;;;11.52;;
7767;SDS011;3928;42.626;23.382;2022-12-16T14:54:59;16.05;;;10.25;;
7767;SDS011;3928;42.626;23.382;2022-12-16T14:58:02;14.77;;;8.27;;
7767;SDS011;3928;42.626;23.382;2022-12-16T15:00:47;10.00;;;6.55;;
7767;SDS011;3928;42.626;23.382;2022-12-16T15:03:40;9.20;;;6.72;;
7767;SDS011;3928;42.626;23.382;2022-12-16T15:06:26;9.77;;;7.68;;
7767;SDS011;3928;42.626;23.382;2022-12-16T15:09:19;8.55;;;6.45;;
7767;SDS011;3928;42.626;23.382;2022-12-16T15:12:07;11.70;;;6.22;;
7767;SDS011;3928;42.626;23.382;2022-12-16T15:14:53;10.85;;;6.50;;
7767;SDS011;3928;42.626;23.382;2022-12-16T15:17:47;9.75;;;6.90;;
7767;SDS011;3928;42.626;23.382;2022-12-16T15:20:36;8.82;;;6.50;;
7767;SDS011;3928;42.626;23.382;2022-12-16T15:23:27;6.68;;;5.80;;
7767;SDS011;3928;42.626;23.382;2022-12-16T15:26:15;12.77;;;7.82;;
7767;SDS011;3928;42.626;23.382;2022-12-16T15:29:00;8.48;;;6.25;;
7767;SDS011;3928;42.626;23.382;2022-12-16T15:31:45;7.90;;;6.10;;
7767;SDS011;3928;42.626;23.382;2022-12-16T15:34:30;10.93;;;6.13;;
7767;SDS011;3928;42.626;23.382;2022-12-16T15:37:21;10.13;;;6.13;;
7767;SDS011;3928;42.626;23.382;2022-12-16T15:40:18;8.73;;;5.40;;
7767;SDS011;3928;42.626;23.382;2022-12-16T15:43:04;8.75;;;5.05;;
7767;SDS011;3928;42.626;23.382;2022-12-16T15:45:49;9.13;;;6.07;;
7767;SDS011;3928;42.626;23.382;2022-12-16T15:48:33;8.73;;;6.22;;
7767;SDS011;3928;42.626;23.382;2022-12-16T15:51:20;8.32;;;5.60;;
7767;SDS011;3928;42.626;23.382;2022-12-16T15:54:12;7.57;;;5.15;;
7767;SDS011;3928;42.626;23.382;2022-12-16T15:56:59;5.32;;;4.65;;
7767;SDS011;3928;42.626;23.382;2022-12-16T15:59:52;10.82;;;6.95;;
7767;SDS011;3928;42.626;23.382;2022-12-16T16:02:43;7.93;;;6.10;;
7767;SDS011;3928;42.626;23.382;2022-12-16T16:05:29;8.57;;;5.80;;
7767;SDS011;3928;42.626;23.382;2022-12-16T16:08:14;7.38;;;5.80;;
7767;SDS011;3928;42.626;23.382;2022-12-16T16:10:59;7.55;;;5.63;;
7767;SDS011;3928;42.626;23.382;2022-12-16T16:13:43;8.05;;;5.40;;
7767;SDS011;3928;42.626;23.382;2022-12-16T16:16:27;7.18;;;5.65;;
7767;SDS011;3928;42.626;23.382;2022-12-16T16:19:13;6.72;;;5.57;;
7767;SDS011;3928;42.626;23.382;2022-12-16T16:22:02;9.18;;;5.43;;
7767;SDS011;3928;42.626;23.382;2022-12-16T16:24:46;9.57;;;5.55;;